sensor_id;sensor_type;location;lat;lon;timestamp;P1;durP1;ratioP1;P2;durP2;ratioP2
11418;SDS011;32800;44.876;13.880;2022-10-17T00:00:51;17.13;;;15.43;;
11418;SDS011;32800;44.876;13.880;2022-10-17T00:03:16;17.58;;;15.82;;
11418;SDS011;32800;44.876;13.880;2022-10-17T00:05:43;16.50;;;14.82;;
11418;SDS011;32800;44.876;13.880;2022-10-17T00:08:11;17.20;;;15.50;;
11418;SDS011;32800;44.876;13.880;2022-10-17T00:10:38;17.85;;;16.05;;
11418;SDS011;32800;44.876;13.880;2022-10-17T00:13:04;17.73;;;15.95;;
11418;SDS011;32800;44.876;13.880;2022-10-17T00:15:30;17.42;;;15.60;;
11418;SDS011;32800;44.876;13.880;2022-10-17T00:17:56;15.90;;;14.40;;
11418;SDS011;32800;44.876;13.880;2022-10-17T00:20:22;16.20;;;14.55;;
11418;SDS011;32800;44.876;13.880;2022-10-17T00:22:47;17.70;;;16.00;;
11418;SDS011;32800;44.876;13.880;2022-10-17T00:25:13;17.88;;;16.02;;
11418;SDS011;32800;44.876;13.880;2022-10-17T00:27:39;17.48;;;15.73;;
11418;SDS011;32800;44.876;13.880;2022-10-17T00:30:06;16.27;;;14.68;;
11418;SDS011;32800;44.876;13.880;2022-10-17T00:32:34;17.55;;;15.85;;
11418;SDS011;32800;44.876;13.880;2022-10-17T00:35:00;18.17;;;16.27;;
11418;SDS011;32800;44.876;13.880;2022-10-17T00:37:25;17.63;;;15.90;;
11418;SDS011;32800;44.876;13.880;2022-10-17T00:39:51;17.40;;;15.60;;
11418;SDS011;32800;44.876;13.880;2022-10-17T00:42:17;17.33;;;15.57;;
11418;SDS011;32800;44.876;13.880;2022-10-17T00:47:13;16.98;;;15.27;;
11418;SDS011;32800;44.876;13.880;2022-10-17T00:49:40;17.20;;;15.50;;
11418;SDS011;32800;44.876;13.880;2022-10-17T00:52:09;17.90;;;16.10;;
11418;SDS011;32800;44.876;13.880;2022-10-17T00:54:37;17.30;;;15.50;;
11418;SDS011;32800;44.876;13.880;2022-10-17T00:57:05;16.88;;;15.07;;
11418;SDS011;32800;44.876;13.880;2022-10-17T00:59:31;16.80;;;15.10;;
11418;SDS011;32800;44.876;13.880;2022-10-17T01:02:13;17.35;;;15.70;;
11418;SDS011;32800;44.876;13.880;2022-10-17T01:04:41;16.42;;;14.73;;
11418;SDS011;32800;44.876;13.880;2022-10-17T01:07:09;16.33;;;14.68;;
11418;SDS011;32800;44.876;13.880;2022-10-17T01:09:35;16.42;;;14.82;;
11418;SDS011;32800;44.876;13.880;2022-10-17T01:20:34;16.05;;;14.45;;
11418;SDS011;32800;44.876;13.880;2022-10-17T01:23:10;15.77;;;14.20;;
11418;SDS011;32800;44.876;13.880;2022-10-17T01:25:55;15.65;;;14.15;;
11418;SDS011;32800;44.876;13.880;2022-10-17T01:28:37;16.48;;;14.65;;
11418;SDS011;32800;44.876;13.880;2022-10-17T01:31:15;16.13;;;14.43;;
11418;SDS011;32800;44.876;13.880;2022-10-17T01:33:52;15.80;;;14.23;;
11418;SDS011;32800;44.876;13.880;2022-10-17T01:37:11;16.58;;;14.90;;
11418;SDS011;32800;44.876;13.880;2022-10-17T01:47:20;14.88;;;13.48;;
11418;SDS011;32800;44.876;13.880;2022-10-17T01:49:50;15.82;;;14.25;;
11418;SDS011;32800;44.876;13.880;2022-10-17T01:52:18;15.85;;;14.35;;
11418;SDS011;32800;44.876;13.880;2022-10-17T01:54:54;15.23;;;13.70;;
11418;SDS011;32800;44.876;13.880;2022-10-17T01:57:28;14.95;;;13.45;;
11418;SDS011;32800;44.876;13.880;2022-10-17T01:59:55;15.82;;;14.18;;
11418;SDS011;32800;44.876;13.880;2022-10-17T02:02:22;15.48;;;13.98;;
11418;SDS011;32800;44.876;13.880;2022-10-17T02:04:48;15.20;;;13.73;;
11418;SDS011;32800;44.876;13.880;2022-10-17T02:07:14;15.98;;;14.38;;
11418;SDS011;32800;44.876;13.880;2022-10-17T02:09:40;15.85;;;14.25;;
11418;SDS011;32800;44.876;13.880;2022-10-17T02:17:31;14.90;;;13.48;;
11418;SDS011;32800;44.876;13.880;2022-10-17T02:28:23;14.73;;;13.23;;
11418;SDS011;32800;44.876;13.880;2022-10-17T02:31:03;15.27;;;13.82;;
11418;SDS011;32800;44.876;13.880;2022-10-17T02:33:41;14.48;;;13.07;;
11418;SDS011;32800;44.876;13.880;2022-10-17T02:36:10;14.52;;;13.13;;
11418;SDS011;32800;44.876;13.880;2022-10-17T02:38:44;14.32;;;12.93;;
11418;SDS011;32800;44.876;13.880;2022-10-17T02:41:12;14.88;;;13.38;;
11418;SDS011;32800;44.876;13.880;2022-10-17T02:43:40;15.38;;;13.88;;
11418;SDS011;32800;44.876;13.880;2022-10-17T02:46:09;13.82;;;12.52;;
11418;SDS011;32800;44.876;13.880;2022-10-17T02:48:37;14.38;;;12.98;;
11418;SDS011;32800;44.876;13.880;2022-10-17T02:51:08;14.43;;;13.02;;
11418;SDS011;32800;44.876;13.880;2022-10-17T02:56:36;15.52;;;13.93;;
11418;SDS011;32800;44.876;13.880;2022-10-17T02:59:07;14.30;;;12.90;;
11418;SDS011;32800;44.876;13.880;2022-10-17T03:01:34;14.98;;;13.45;;
11418;SDS011;32800;44.876;13.880;2022-10-17T03:04:18;14.48;;;13.05;;
11418;SDS011;32800;44.876;13.880;2022-10-17T03:06:44;13.95;;;12.55;;
11418;SDS011;32800;44.876;13.880;2022-10-17T03:09:11;13.90;;;12.50;;
11418;SDS011;32800;44.876;13.880;2022-10-17T03:11:36;14.07;;;12.75;;
11418;SDS011;32800;44.876;13.880;2022-10-17T03:14:02;14.93;;;13.52;;
11418;SDS011;32800;44.876;13.880;2022-10-17T03:16:27;14.13;;;12.73;;
11418;SDS011;32800;44.876;13.880;2022-10-17T03:18:53;13.75;;;12.45;;
11418;SDS011;32800;44.876;13.880;2022-10-17T03:21:19;14.15;;;12.75;;
11418;SDS011;32800;44.876;13.880;2022-10-17T03:23:44;14.70;;;13.30;;
11418;SDS011;32800;44.876;13.880;2022-10-17T03:26:10;13.85;;;12.45;;
11418;SDS011;32800;44.876;13.880;2022-10-17T03:28:35;14.05;;;12.70;;
11418;SDS011;32800;44.876;13.880;2022-10-17T03:31:08;13.65;;;12.35;;
11418;SDS011;32800;44.876;13.880;2022-10-17T03:33:35;14.80;;;13.40;;
11418;SDS011;32800;44.876;13.880;2022-10-17T03:36:19;13.82;;;12.52;;
11418;SDS011;32800;44.876;13.880;2022-10-17T03:38:45;13.23;;;11.93;;
11418;SDS011;32800;44.876;13.880;2022-10-17T03:41:11;13.63;;;12.23;;
11418;SDS011;32800;44.876;13.880;2022-10-17T03:43:37;13.43;;;12.20;;
11418;SDS011;32800;44.876;13.880;2022-10-17T03:46:03;13.45;;;12.20;;
11418;SDS011;32800;44.876;13.880;2022-10-17T03:48:30;13.55;;;12.25;;
11418;SDS011;32800;44.876;13.880;2022-10-17T03:50:59;13.93;;;12.63;;
11418;SDS011;32800;44.876;13.880;2022-10-17T03:53:29;12.88;;;11.57;;
11418;SDS011;32800;44.876;13.880;2022-10-17T03:55:55;14.23;;;12.82;;
11418;SDS011;32800;44.876;13.880;2022-10-17T03:58:21;12.70;;;11.50;;
11418;SDS011;32800;44.876;13.880;2022-10-17T04:00:46;13.93;;;12.52;;
11418;SDS011;32800;44.876;13.880;2022-10-17T04:03:12;13.82;;;12.43;;
11418;SDS011;32800;44.876;13.880;2022-10-17T04:05:37;12.98;;;11.70;;
11418;SDS011;32800;44.876;13.880;2022-10-17T04:08:03;14.13;;;12.77;;
11418;SDS011;32800;44.876;13.880;2022-10-17T04:10:29;13.15;;;11.85;;
11418;SDS011;32800;44.876;13.880;2022-10-17T04:12:55;13.73;;;12.35;;
11418;SDS011;32800;44.876;13.880;2022-10-17T04:15:20;12.65;;;11.52;;
11418;SDS011;32800;44.876;13.880;2022-10-17T04:17:46;13.30;;;12.00;;
11418;SDS011;32800;44.876;13.880;2022-10-17T04:20:11;13.43;;;12.13;;
11418;SDS011;32800;44.876;13.880;2022-10-17T04:22:37;13.52;;;12.23;;
11418;SDS011;32800;44.876;13.880;2022-10-17T04:25:02;13.02;;;11.82;;
11418;SDS011;32800;44.876;13.880;2022-10-17T04:27:28;13.40;;;12.10;;
11418;SDS011;32800;44.876;13.880;2022-10-17T04:29:54;12.65;;;11.45;;
11418;SDS011;32800;44.876;13.880;2022-10-17T04:32:19;13.10;;;11.80;;
11418;SDS011;32800;44.876;13.880;2022-10-17T04:34:47;12.90;;;11.70;;
11418;SDS011;32800;44.876;13.880;2022-10-17T04:37:14;12.98;;;11.68;;
11418;SDS011;32800;44.876;13.880;2022-10-17T04:39:39;13.05;;;11.85;;
11418;SDS011;32800;44.876;13.880;2022-10-17T04:42:05;13.60;;;12.25;;
11418;SDS011;32800;44.876;13.880;2022-10-17T04:44:30;12.32;;;11.13;;
11418;SDS011;32800;44.876;13.880;2022-10-17T04:46:57;12.65;;;11.45;;
11418;SDS011;32800;44.876;13.880;2022-10-17T04:49:23;13.88;;;11.88;;
11418;SDS011;32800;44.876;13.880;2022-10-17T04:51:48;13.63;;;12.32;;
11418;SDS011;32800;44.876;13.880;2022-10-17T04:54:14;12.38;;;11.27;;
11418;SDS011;32800;44.876;13.880;2022-10-17T04:56:39;12.93;;;11.63;;
11418;SDS011;32800;44.876;13.880;2022-10-17T04:59:05;12.93;;;11.60;;
11418;SDS011;32800;44.876;13.880;2022-10-17T05:01:30;13.02;;;11.77;;
11418;SDS011;32800;44.876;13.880;2022-10-17T05:03:56;11.95;;;10.85;;
11418;SDS011;32800;44.876;13.880;2022-10-17T05:06:22;12.68;;;11.43;;
11418;SDS011;32800;44.876;13.880;2022-10-17T05:08:49;12.07;;;10.98;;
11418;SDS011;32800;44.876;13.880;2022-10-17T05:11:18;17.88;;;11.50;;
11418;SDS011;32800;44.876;13.880;2022-10-17T05:13:48;15.60;;;11.13;;
11418;SDS011;32800;44.876;13.880;2022-10-17T05:16:15;12.05;;;10.38;;
11418;SDS011;32800;44.876;13.880;2022-10-17T05:18:41;11.65;;;10.52;;
11418;SDS011;32800;44.876;13.880;2022-10-17T05:21:06;11.83;;;10.63;;
11418;SDS011;32800;44.876;13.880;2022-10-17T05:23:32;12.38;;;10.80;;
11418;SDS011;32800;44.876;13.880;2022-10-17T05:25:57;13.57;;;10.80;;
11418;SDS011;32800;44.876;13.880;2022-10-17T05:28:23;13.00;;;11.80;;
11418;SDS011;32800;44.876;13.880;2022-10-17T05:30:48;12.90;;;10.93;;
11418;SDS011;32800;44.876;13.880;2022-10-17T05:33:14;16.17;;;10.88;;
11418;SDS011;32800;44.876;13.880;2022-10-17T05:35:39;18.33;;;11.45;;
11418;SDS011;32800;44.876;13.880;2022-10-17T05:38:05;11.80;;;10.55;;
11418;SDS011;32800;44.876;13.880;2022-10-17T05:40:30;12.70;;;10.80;;
11418;SDS011;32800;44.876;13.880;2022-10-17T05:42:56;11.40;;;10.30;;
11418;SDS011;32800;44.876;13.880;2022-10-17T05:45:21;11.05;;;10.05;;
11418;SDS011;32800;44.876;13.880;2022-10-17T05:47:47;11.88;;;10.45;;
11418;SDS011;32800;44.876;13.880;2022-10-17T05:50:12;13.15;;;11.75;;
11418;SDS011;32800;44.876;13.880;2022-10-17T05:52:38;12.10;;;10.90;;
11418;SDS011;32800;44.876;13.880;2022-10-17T05:55:04;12.63;;;11.33;;
11418;SDS011;32800;44.876;13.880;2022-10-17T05:57:30;11.43;;;10.07;;
11418;SDS011;32800;44.876;13.880;2022-10-17T05:59:56;12.70;;;11.40;;
11418;SDS011;32800;44.876;13.880;2022-10-17T06:02:21;12.50;;;11.30;;
11418;SDS011;32800;44.876;13.880;2022-10-17T06:04:47;12.67;;;11.47;;
11418;SDS011;32800;44.876;13.880;2022-10-17T06:07:14;12.68;;;11.40;;
11418;SDS011;32800;44.876;13.880;2022-10-17T06:09:40;14.03;;;11.37;;
11418;SDS011;32800;44.876;13.880;2022-10-17T06:12:06;12.70;;;10.73;;
11418;SDS011;32800;44.876;13.880;2022-10-17T06:14:32;12.97;;;11.67;;
11418;SDS011;32800;44.876;13.880;2022-10-17T06:16:57;12.80;;;11.23;;
11418;SDS011;32800;44.876;13.880;2022-10-17T06:19:23;13.10;;;11.70;;
11418;SDS011;32800;44.876;13.880;2022-10-17T06:21:49;14.27;;;11.70;;
11418;SDS011;32800;44.876;13.880;2022-10-17T06:24:14;14.25;;;11.55;;
11418;SDS011;32800;44.876;13.880;2022-10-17T06:26:40;13.35;;;11.95;;
11418;SDS011;32800;44.876;13.880;2022-10-17T06:29:06;12.63;;;11.35;;
11418;SDS011;32800;44.876;13.880;2022-10-17T06:31:32;12.80;;;11.18;;
11418;SDS011;32800;44.876;13.880;2022-10-17T06:33:57;13.32;;;11.85;;
11418;SDS011;32800;44.876;13.880;2022-10-17T06:36:23;12.20;;;11.00;;
11418;SDS011;32800;44.876;13.880;2022-10-17T06:38:48;13.20;;;11.15;;
11418;SDS011;32800;44.876;13.880;2022-10-17T06:41:14;14.15;;;11.93;;
11418;SDS011;32800;44.876;13.880;2022-10-17T06:43:43;13.60;;;11.77;;
11418;SDS011;32800;44.876;13.880;2022-10-17T06:46:12;14.97;;;11.80;;
11418;SDS011;32800;44.876;13.880;2022-10-17T06:48:39;14.32;;;12.00;;
11418;SDS011;32800;44.876;13.880;2022-10-17T06:51:05;12.52;;;11.25;;
11418;SDS011;32800;44.876;13.880;2022-10-17T06:53:31;17.48;;;12.05;;
11418;SDS011;32800;44.876;13.880;2022-10-17T06:55:58;15.43;;;11.65;;
11418;SDS011;32800;44.876;13.880;2022-10-17T06:58:32;14.40;;;11.57;;
11418;SDS011;32800;44.876;13.880;2022-10-17T07:00:59;15.98;;;11.68;;
11418;SDS011;32800;44.876;13.880;2022-10-17T07:03:35;14.55;;;12.23;;
11418;SDS011;32800;44.876;13.880;2022-10-17T07:06:01;15.20;;;12.10;;
11418;SDS011;32800;44.876;13.880;2022-10-17T07:08:27;14.13;;;11.70;;
11418;SDS011;32800;44.876;13.880;2022-10-17T07:10:53;15.25;;;12.02;;
11418;SDS011;32800;44.876;13.880;2022-10-17T07:13:19;13.20;;;11.77;;
11418;SDS011;32800;44.876;13.880;2022-10-17T07:15:44;15.75;;;12.20;;
11418;SDS011;32800;44.876;13.880;2022-10-17T07:18:10;16.77;;;11.48;;
11418;SDS011;32800;44.876;13.880;2022-10-17T07:20:36;13.45;;;12.00;;
11418;SDS011;32800;44.876;13.880;2022-10-17T07:23:02;12.95;;;11.43;;
11418;SDS011;32800;44.876;13.880;2022-10-17T07:25:28;14.55;;;12.02;;
11418;SDS011;32800;44.876;13.880;2022-10-17T07:27:54;13.15;;;11.43;;
11418;SDS011;32800;44.876;13.880;2022-10-17T07:30:20;19.45;;;12.30;;
11418;SDS011;32800;44.876;13.880;2022-10-17T07:32:45;13.25;;;11.95;;
11418;SDS011;32800;44.876;13.880;2022-10-17T07:35:11;13.20;;;11.13;;
11418;SDS011;32800;44.876;13.880;2022-10-17T07:37:37;15.85;;;12.23;;
11418;SDS011;32800;44.876;13.880;2022-10-17T07:40:04;13.95;;;12.15;;
11418;SDS011;32800;44.876;13.880;2022-10-17T07:42:31;14.73;;;12.15;;
11418;SDS011;32800;44.876;13.880;2022-10-17T07:45:05;14.00;;;11.48;;
11418;SDS011;32800;44.876;13.880;2022-10-17T07:47:31;15.48;;;11.50;;
11418;SDS011;32800;44.876;13.880;2022-10-17T07:49:59;13.90;;;11.52;;
11418;SDS011;32800;44.876;13.880;2022-10-17T07:52:25;17.98;;;14.05;;
11418;SDS011;32800;44.876;13.880;2022-10-17T07:54:51;22.85;;;15.38;;
11418;SDS011;32800;44.876;13.880;2022-10-17T07:57:16;14.68;;;12.80;;
11418;SDS011;32800;44.876;13.880;2022-10-17T07:59:42;16.38;;;11.73;;
11418;SDS011;32800;44.876;13.880;2022-10-17T08:02:09;12.88;;;11.55;;
11418;SDS011;32800;44.876;13.880;2022-10-17T08:04:45;15.15;;;11.95;;
11418;SDS011;32800;44.876;13.880;2022-10-17T08:07:11;15.48;;;12.77;;
11418;SDS011;32800;44.876;13.880;2022-10-17T08:09:36;14.18;;;12.05;;
11418;SDS011;32800;44.876;13.880;2022-10-17T08:12:02;19.88;;;15.02;;
11418;SDS011;32800;44.876;13.880;2022-10-17T08:14:28;15.25;;;12.57;;
11418;SDS011;32800;44.876;13.880;2022-10-17T08:16:53;16.65;;;13.65;;
11418;SDS011;32800;44.876;13.880;2022-10-17T08:19:19;16.60;;;13.13;;
11418;SDS011;32800;44.876;13.880;2022-10-17T08:21:44;15.55;;;13.18;;
11418;SDS011;32800;44.876;13.880;2022-10-17T08:24:11;14.68;;;12.55;;
11418;SDS011;32800;44.876;13.880;2022-10-17T08:26:36;14.05;;;12.25;;
11418;SDS011;32800;44.876;13.880;2022-10-17T08:29:02;16.40;;;13.02;;
11418;SDS011;32800;44.876;13.880;2022-10-17T08:31:27;19.23;;;13.27;;
11418;SDS011;32800;44.876;13.880;2022-10-17T08:33:53;16.95;;;13.30;;
11418;SDS011;32800;44.876;13.880;2022-10-17T08:36:19;16.35;;;12.73;;
11418;SDS011;32800;44.876;13.880;2022-10-17T08:38:45;17.67;;;13.80;;
11418;SDS011;32800;44.876;13.880;2022-10-17T08:41:18;18.95;;;14.48;;
11418;SDS011;32800;44.876;13.880;2022-10-17T08:46:41;17.75;;;14.52;;
11418;SDS011;32800;44.876;13.880;2022-10-17T08:49:42;19.48;;;14.70;;
11418;SDS011;32800;44.876;13.880;2022-10-17T08:55:15;17.77;;;14.98;;
11418;SDS011;32800;44.876;13.880;2022-10-17T08:57:42;19.27;;;16.25;;
11418;SDS011;32800;44.876;13.880;2022-10-17T09:00:16;21.20;;;16.58;;
11418;SDS011;32800;44.876;13.880;2022-10-17T09:02:49;20.00;;;17.35;;
11418;SDS011;32800;44.876;13.880;2022-10-17T09:08:36;17.98;;;16.10;;
11418;SDS011;32800;44.876;13.880;2022-10-17T09:11:32;23.25;;;16.83;;
11418;SDS011;32800;44.876;13.880;2022-10-17T09:14:49;19.58;;;16.17;;
11418;SDS011;32800;44.876;13.880;2022-10-17T09:17:13;18.65;;;16.40;;
11418;SDS011;32800;44.876;13.880;2022-10-17T09:20:00;18.67;;;16.23;;
11418;SDS011;32800;44.876;13.880;2022-10-17T09:22:31;17.95;;;16.08;;
11418;SDS011;32800;44.876;13.880;2022-10-17T09:24:59;19.00;;;15.98;;
11418;SDS011;32800;44.876;13.880;2022-10-17T09:27:33;17.92;;;16.00;;
11418;SDS011;32800;44.876;13.880;2022-10-17T09:30:15;17.88;;;15.82;;
11418;SDS011;32800;44.876;13.880;2022-10-17T09:32:41;17.90;;;15.40;;
11418;SDS011;32800;44.876;13.880;2022-10-17T09:35:16;17.55;;;15.75;;
11418;SDS011;32800;44.876;13.880;2022-10-17T09:37:42;17.05;;;14.80;;
11418;SDS011;32800;44.876;13.880;2022-10-17T09:40:15;17.60;;;15.13;;
11418;SDS011;32800;44.876;13.880;2022-10-17T09:42:44;20.98;;;15.68;;
11418;SDS011;32800;44.876;13.880;2022-10-17T09:45:15;19.17;;;15.77;;
11418;SDS011;32800;44.876;13.880;2022-10-17T09:50:21;17.75;;;15.48;;
11418;SDS011;32800;44.876;13.880;2022-10-17T09:52:59;17.27;;;15.30;;
11418;SDS011;32800;44.876;13.880;2022-10-17T09:55:38;17.10;;;15.30;;
11418;SDS011;32800;44.876;13.880;2022-10-17T09:58:07;17.95;;;15.63;;
11418;SDS011;32800;44.876;13.880;2022-10-17T10:00:38;21.45;;;16.25;;
11418;SDS011;32800;44.876;13.880;2022-10-17T10:03:27;18.58;;;16.42;;
11418;SDS011;32800;44.876;13.880;2022-10-17T10:06:02;18.13;;;16.23;;
11418;SDS011;32800;44.876;13.880;2022-10-17T10:08:49;17.10;;;15.35;;
11418;SDS011;32800;44.876;13.880;2022-10-17T10:11:25;17.92;;;16.02;;
11418;SDS011;32800;44.876;13.880;2022-10-17T10:14:19;20.77;;;15.55;;
11418;SDS011;32800;44.876;13.880;2022-10-17T10:16:47;18.17;;;16.23;;
11418;SDS011;32800;44.876;13.880;2022-10-17T10:19:33;18.50;;;16.08;;
11418;SDS011;32800;44.876;13.880;2022-10-17T10:22:13;17.23;;;15.52;;
11418;SDS011;32800;44.876;13.880;2022-10-17T10:24:40;18.55;;;15.70;;
11418;SDS011;32800;44.876;13.880;2022-10-17T10:27:09;18.80;;;16.80;;
11418;SDS011;32800;44.876;13.880;2022-10-17T10:29:55;19.40;;;15.77;;
11418;SDS011;32800;44.876;13.880;2022-10-17T10:32:22;17.90;;;16.00;;
11418;SDS011;32800;44.876;13.880;2022-10-17T10:37:43;19.40;;;15.43;;
11418;SDS011;32800;44.876;13.880;2022-10-17T10:40:15;18.40;;;16.45;;
11418;SDS011;32800;44.876;13.880;2022-10-17T10:42:45;18.17;;;16.20;;
11418;SDS011;32800;44.876;13.880;2022-10-17T10:47:55;17.58;;;15.75;;
11418;SDS011;32800;44.876;13.880;2022-10-17T10:55:54;18.30;;;16.40;;
11418;SDS011;32800;44.876;13.880;2022-10-17T10:58:32;17.80;;;15.80;;
11418;SDS011;32800;44.876;13.880;2022-10-17T11:01:22;19.00;;;16.70;;
11418;SDS011;32800;44.876;13.880;2022-10-17T11:06:52;20.55;;;17.38;;
11418;SDS011;32800;44.876;13.880;2022-10-17T11:09:32;19.75;;;17.65;;
11418;SDS011;32800;44.876;13.880;2022-10-17T11:17:42;19.25;;;17.00;;
11418;SDS011;32800;44.876;13.880;2022-10-17T11:22:47;18.33;;;16.42;;
11418;SDS011;32800;44.876;13.880;2022-10-17T11:25:47;19.33;;;16.90;;
11418;SDS011;32800;44.876;13.880;2022-10-17T11:28:24;19.90;;;16.85;;
11418;SDS011;32800;44.876;13.880;2022-10-17T11:36:16;20.67;;;17.17;;
11418;SDS011;32800;44.876;13.880;2022-10-17T11:38:48;19.08;;;17.10;;
11418;SDS011;32800;44.876;13.880;2022-10-17T11:41:28;19.65;;;17.48;;
11418;SDS011;32800;44.876;13.880;2022-10-17T11:46:31;20.88;;;18.13;;
11418;SDS011;32800;44.876;13.880;2022-10-17T11:51:33;23.13;;;18.60;;
11418;SDS011;32800;44.876;13.880;2022-10-17T11:54:10;20.65;;;18.33;;
11418;SDS011;32800;44.876;13.880;2022-10-17T11:56:50;21.13;;;18.92;;
11418;SDS011;32800;44.876;13.880;2022-10-17T12:02:25;21.27;;;19.10;;
11418;SDS011;32800;44.876;13.880;2022-10-17T12:08:17;21.73;;;19.48;;
11418;SDS011;32800;44.876;13.880;2022-10-17T12:11:00;22.92;;;20.52;;
11418;SDS011;32800;44.876;13.880;2022-10-17T12:15:57;25.25;;;22.55;;
11418;SDS011;32800;44.876;13.880;2022-10-17T12:18:41;26.10;;;22.63;;
11418;SDS011;32800;44.876;13.880;2022-10-17T12:21:07;28.50;;;22.98;;
11418;SDS011;32800;44.876;13.880;2022-10-17T12:23:32;25.67;;;22.02;;
11418;SDS011;32800;44.876;13.880;2022-10-17T12:26:01;25.20;;;22.50;;
11418;SDS011;32800;44.876;13.880;2022-10-17T12:28:33;26.35;;;22.77;;
11418;SDS011;32800;44.876;13.880;2022-10-17T12:31:13;25.13;;;22.42;;
11418;SDS011;32800;44.876;13.880;2022-10-17T12:46:41;28.48;;;24.58;;
11418;SDS011;32800;44.876;13.880;2022-10-17T12:49:22;28.27;;;24.52;;
11418;SDS011;32800;44.876;13.880;2022-10-17T12:52:21;30.08;;;24.50;;
11418;SDS011;32800;44.876;13.880;2022-10-17T13:00:19;179.00;;;98.55;;
11418;SDS011;32800;44.876;13.880;2022-10-17T13:05:42;150.88;;;85.32;;
11418;SDS011;32800;44.876;13.880;2022-10-17T13:08:22;144.63;;;75.28;;
11418;SDS011;32800;44.876;13.880;2022-10-17T13:10:50;210.70;;;92.00;;
11418;SDS011;32800;44.876;13.880;2022-10-17T13:13:35;227.68;;;105.90;;
11418;SDS011;32800;44.876;13.880;2022-10-17T13:16:03;259.42;;;111.22;;
11418;SDS011;32800;44.876;13.880;2022-10-17T13:18:29;253.65;;;112.47;;
11418;SDS011;32800;44.876;13.880;2022-10-17T13:21:14;276.98;;;115.43;;
11418;SDS011;32800;44.876;13.880;2022-10-17T13:23:40;237.75;;;104.93;;
11418;SDS011;32800;44.876;13.880;2022-10-17T13:28:37;186.80;;;84.88;;
11418;SDS011;32800;44.876;13.880;2022-10-17T13:31:03;171.13;;;74.97;;
11418;SDS011;32800;44.876;13.880;2022-10-17T13:33:38;158.88;;;73.97;;
11418;SDS011;32800;44.876;13.880;2022-10-17T13:36:12;145.18;;;66.05;;
11418;SDS011;32800;44.876;13.880;2022-10-17T13:38:43;139.52;;;65.15;;
11418;SDS011;32800;44.876;13.880;2022-10-17T13:41:12;125.03;;;63.35;;
11418;SDS011;32800;44.876;13.880;2022-10-17T13:43:38;114.15;;;58.80;;
11418;SDS011;32800;44.876;13.880;2022-10-17T13:46:04;105.68;;;54.20;;
11418;SDS011;32800;44.876;13.880;2022-10-17T13:48:32;88.53;;;48.92;;
11418;SDS011;32800;44.876;13.880;2022-10-17T13:51:00;94.38;;;51.45;;
11418;SDS011;32800;44.876;13.880;2022-10-17T13:56:00;84.72;;;47.08;;
11418;SDS011;32800;44.876;13.880;2022-10-17T13:58:43;75.03;;;45.38;;
11418;SDS011;32800;44.876;13.880;2022-10-17T14:01:13;72.97;;;42.22;;
11418;SDS011;32800;44.876;13.880;2022-10-17T14:03:40;68.07;;;40.70;;
11418;SDS011;32800;44.876;13.880;2022-10-17T14:08:57;60.22;;;38.47;;
11418;SDS011;32800;44.876;13.880;2022-10-17T14:11:38;55.42;;;34.67;;
11418;SDS011;32800;44.876;13.880;2022-10-17T14:14:05;53.58;;;35.33;;
11418;SDS011;32800;44.876;13.880;2022-10-17T14:16:36;50.83;;;33.08;;
11418;SDS011;32800;44.876;13.880;2022-10-17T14:19:04;44.05;;;31.90;;
11418;SDS011;32800;44.876;13.880;2022-10-17T14:21:31;49.13;;;32.35;;
11418;SDS011;32800;44.876;13.880;2022-10-17T14:26:52;41.20;;;31.42;;
11418;SDS011;32800;44.876;13.880;2022-10-17T14:32:16;41.85;;;28.98;;
11418;SDS011;32800;44.876;13.880;2022-10-17T14:34:42;37.78;;;28.80;;
11418;SDS011;32800;44.876;13.880;2022-10-17T14:37:08;39.55;;;28.95;;
11418;SDS011;32800;44.876;13.880;2022-10-17T14:39:35;37.28;;;28.85;;
11418;SDS011;32800;44.876;13.880;2022-10-17T14:42:01;33.97;;;26.55;;
11418;SDS011;32800;44.876;13.880;2022-10-17T14:44:28;34.17;;;26.80;;
11418;SDS011;32800;44.876;13.880;2022-10-17T14:46:56;33.65;;;27.02;;
11418;SDS011;32800;44.876;13.880;2022-10-17T14:49:31;33.63;;;27.08;;
11418;SDS011;32800;44.876;13.880;2022-10-17T14:54:39;31.17;;;26.17;;
11418;SDS011;32800;44.876;13.880;2022-10-17T14:57:08;31.88;;;27.00;;
11418;SDS011;32800;44.876;13.880;2022-10-17T14:59:49;31.95;;;25.63;;
11418;SDS011;32800;44.876;13.880;2022-10-17T15:02:15;31.40;;;26.27;;
11418;SDS011;32800;44.876;13.880;2022-10-17T15:04:41;28.60;;;24.38;;
11418;SDS011;32800;44.876;13.880;2022-10-17T15:07:09;28.63;;;24.42;;
11418;SDS011;32800;44.876;13.880;2022-10-17T15:09:38;27.73;;;24.05;;
11418;SDS011;32800;44.876;13.880;2022-10-17T15:12:05;32.40;;;25.70;;
11418;SDS011;32800;44.876;13.880;2022-10-17T15:14:31;30.23;;;24.58;;
11418;SDS011;32800;44.876;13.880;2022-10-17T15:16:57;29.13;;;24.25;;
11418;SDS011;32800;44.876;13.880;2022-10-17T15:19:22;29.15;;;24.00;;
11418;SDS011;32800;44.876;13.880;2022-10-17T15:21:48;26.73;;;23.83;;
11418;SDS011;32800;44.876;13.880;2022-10-17T15:24:13;28.35;;;23.65;;
11418;SDS011;32800;44.876;13.880;2022-10-17T15:26:39;26.65;;;23.27;;
11418;SDS011;32800;44.876;13.880;2022-10-17T15:29:05;27.33;;;23.38;;
11418;SDS011;32800;44.876;13.880;2022-10-17T15:31:31;28.95;;;24.33;;
11418;SDS011;32800;44.876;13.880;2022-10-17T15:33:57;26.63;;;23.70;;
11418;SDS011;32800;44.876;13.880;2022-10-17T15:38:53;26.20;;;22.38;;
11418;SDS011;32800;44.876;13.880;2022-10-17T15:41:24;26.98;;;22.95;;
11418;SDS011;32800;44.876;13.880;2022-10-17T15:43:50;27.73;;;22.83;;
11418;SDS011;32800;44.876;13.880;2022-10-17T15:46:34;27.63;;;23.10;;
11418;SDS011;32800;44.876;13.880;2022-10-17T15:49:01;29.00;;;22.65;;
11418;SDS011;32800;44.876;13.880;2022-10-17T15:51:31;31.60;;;24.55;;
11418;SDS011;32800;44.876;13.880;2022-10-17T15:53:57;29.38;;;23.48;;
11418;SDS011;32800;44.876;13.880;2022-10-17T15:56:52;26.88;;;23.67;;
11418;SDS011;32800;44.876;13.880;2022-10-17T15:59:14;26.92;;;24.02;;
11418;SDS011;32800;44.876;13.880;2022-10-17T16:01:42;30.33;;;23.65;;
11418;SDS011;32800;44.876;13.880;2022-10-17T16:04:11;25.75;;;22.25;;
11418;SDS011;32800;44.876;13.880;2022-10-17T16:06:39;28.02;;;23.80;;
11418;SDS011;32800;44.876;13.880;2022-10-17T16:09:06;31.33;;;24.45;;
11418;SDS011;32800;44.876;13.880;2022-10-17T16:14:13;31.50;;;24.23;;
11418;SDS011;32800;44.876;13.880;2022-10-17T16:16:39;28.40;;;24.75;;
11418;SDS011;32800;44.876;13.880;2022-10-17T16:19:05;32.35;;;25.55;;
11418;SDS011;32800;44.876;13.880;2022-10-17T16:21:31;29.25;;;26.08;;
11418;SDS011;32800;44.876;13.880;2022-10-17T16:23:59;30.13;;;26.70;;
11418;SDS011;32800;44.876;13.880;2022-10-17T16:26:26;29.50;;;26.38;;
11418;SDS011;32800;44.876;13.880;2022-10-17T16:28:52;33.30;;;27.27;;
11418;SDS011;32800;44.876;13.880;2022-10-17T16:31:20;33.78;;;27.52;;
11418;SDS011;32800;44.876;13.880;2022-10-17T16:33:50;31.27;;;26.70;;